createdAt,value
2023-02-13T00:01:21.721Z,28.37
2023-02-13T00:03:50.210Z,26.37
2023-02-13T00:06:18.534Z,25.30
2023-02-13T00:08:46.785Z,27.80
2023-02-13T00:11:16.560Z,24.90
2023-02-13T00:13:45.132Z,25.80
2023-02-13T00:16:13.571Z,26.27
2023-02-13T00:18:41.845Z,26.87
2023-02-13T00:21:12.541Z,25.93
2023-02-13T00:23:41.504Z,25.87
2023-02-13T00:26:12.298Z,28.40
2023-02-13T00:28:47.071Z,27.47
2023-02-13T00:31:17.176Z,28.73
2023-02-13T00:33:45.685Z,28.00
2023-02-13T00:36:15.714Z,26.70
2023-02-13T00:38:44.626Z,26.97
2023-02-13T00:41:14.313Z,27.60
2023-02-13T00:43:42.635Z,27.07
2023-02-13T00:46:12.430Z,27.50
2023-02-13T00:48:41.149Z,28.40
2023-02-13T00:51:09.885Z,26.97
2023-02-13T00:53:38.943Z,26.33
2023-02-13T00:56:08.283Z,28.37
2023-02-13T00:58:38.982Z,27.37
2023-02-13T01:01:07.402Z,27.33
2023-02-13T01:03:37.707Z,25.30
2023-02-13T01:06:06.849Z,27.67
2023-02-13T01:08:35.487Z,25.87
2023-02-13T01:11:03.710Z,25.20
2023-02-13T01:13:31.958Z,27.07
2023-02-13T01:16:00.313Z,27.57
2023-02-13T01:18:28.675Z,25.17
2023-02-13T01:21:00.433Z,26.60
2023-02-13T01:23:32.081Z,27.23
2023-02-13T01:26:00.681Z,27.43
2023-02-13T01:28:29.160Z,26.97
2023-02-13T01:30:58.953Z,27.80
2023-02-13T01:33:29.855Z,27.83
2023-02-13T01:36:00.473Z,27.47
2023-02-13T01:38:29.540Z,27.13
2023-02-13T01:40:58.053Z,28.17
2023-02-13T01:43:43.573Z,29.13
2023-02-13T01:46:13.965Z,28.67
2023-02-13T01:48:42.430Z,28.63
2023-02-13T01:51:15.662Z,28.73
2023-02-13T01:53:48.589Z,27.77
2023-02-13T01:56:21.918Z,29.10
2023-02-13T01:58:55.546Z,28.93
2023-02-13T02:01:25.426Z,29.40
2023-02-13T02:03:59.714Z,29.27
2023-02-13T02:06:36.782Z,29.90
2023-02-13T02:09:09.997Z,28.53
2023-02-13T02:11:46.300Z,29.17
2023-02-13T02:14:16.595Z,30.23
2023-02-13T02:16:44.966Z,30.67
2023-02-13T02:19:20.448Z,30.47
2023-02-13T02:22:06.630Z,28.43
2023-02-13T02:24:55.368Z,31.10
2023-02-13T02:28:08.609Z,31.70
2023-02-13T02:31:13.993Z,29.90
2023-02-13T02:33:51.613Z,29.70
2023-02-13T02:36:32.808Z,30.00
2023-02-13T02:39:11.173Z,30.27
2023-02-13T02:41:55.607Z,30.53
2023-02-13T02:44:39.469Z,30.73
2023-02-13T02:47:32.300Z,29.53
2023-02-13T02:50:15.810Z,31.60
2023-02-13T02:52:55.581Z,31.77
2023-02-13T02:55:34.071Z,31.13
2023-02-13T02:58:27.782Z,31.57
2023-02-13T03:01:18.416Z,30.53
2023-02-13T03:04:08.500Z,31.77
2023-02-13T03:06:44.462Z,30.60
2023-02-13T03:09:33.843Z,32.17
2023-02-13T03:12:20.106Z,32.40
2023-02-13T03:14:48.391Z,33.13
2023-02-13T03:17:36.947Z,30.80
2023-02-13T03:20:32.959Z,33.70
2023-02-13T03:23:14.991Z,32.87
2023-02-13T03:26:21.045Z,32.40
2023-02-13T03:29:16.250Z,31.10
2023-02-13T03:32:01.676Z,32.03
2023-02-13T03:34:55.007Z,30.70
2023-02-13T03:37:46.199Z,30.63
2023-02-13T03:40:22.072Z,31.80
2023-02-13T03:42:57.575Z,33.77
2023-02-13T03:45:51.110Z,32.50
2023-02-13T03:48:39.887Z,32.47
2023-02-13T03:51:11.062Z,31.67
2023-02-13T03:53:41.482Z,33.20
2023-02-13T03:56:31.964Z,31.57
2023-02-13T03:59:20.085Z,34.40
2023-02-13T04:01:59.662Z,32.90
2023-02-13T04:04:33.375Z,34.83
2023-02-13T04:07:05.174Z,35.07
2023-02-13T04:09:35.839Z,34.40
2023-02-13T04:12:13.460Z,34.73
2023-02-13T04:14:48.829Z,34.53
2023-02-13T04:17:22.990Z,36.20
2023-02-13T04:19:51.589Z,35.00
2023-02-13T04:22:20.078Z,37.80
2023-02-13T04:24:48.540Z,32.33
2023-02-13T04:27:19.112Z,36.27
2023-02-13T04:29:47.371Z,36.83
2023-02-13T04:32:17.469Z,35.00
2023-02-13T04:34:45.720Z,35.37
2023-02-13T04:37:13.990Z,31.77
2023-02-13T04:39:42.427Z,34.50
2023-02-13T04:42:10.650Z,32.50
2023-02-13T04:44:40.226Z,32.10
2023-02-13T04:47:08.407Z,32.47
2023-02-13T04:49:36.862Z,34.97
2023-02-13T04:52:05.337Z,33.27
2023-02-13T04:54:33.546Z,34.37
2023-02-13T04:57:01.745Z,34.80
2023-02-13T04:59:29.999Z,32.93
2023-02-13T05:02:00.207Z,36.47
2023-02-13T05:04:29.004Z,36.20
2023-02-13T05:06:57.307Z,32.47
2023-02-13T05:09:25.636Z,34.00
2023-02-13T05:11:54.785Z,34.60
2023-02-13T05:14:23.372Z,34.13
2023-02-13T05:16:51.613Z,33.40
2023-02-13T05:19:21.220Z,35.40
2023-02-13T05:22:06.949Z,33.00
2023-02-13T05:24:35.175Z,36.10
2023-02-13T05:27:03.438Z,33.23
2023-02-13T05:29:31.665Z,34.43
2023-02-13T05:32:00.933Z,34.67
2023-02-13T05:34:30.633Z,38.37
2023-02-13T05:36:59.092Z,36.93
2023-02-13T05:39:27.458Z,36.73
2023-02-13T05:41:55.933Z,37.37
2023-02-13T05:44:24.148Z,36.10
2023-02-13T05:46:53.285Z,37.80
2023-02-13T05:49:22.948Z,35.63
2023-02-13T05:51:53.177Z,37.77
2023-02-13T05:54:21.512Z,38.63
2023-02-13T05:56:49.721Z,37.67
2023-02-13T05:59:18.045Z,37.13
2023-02-13T06:01:46.295Z,37.87
2023-02-13T06:04:14.607Z,38.33
2023-02-13T06:06:42.866Z,36.77
2023-02-13T06:09:12.654Z,40.67
2023-02-13T06:11:40.871Z,41.57
2023-02-13T06:14:09.267Z,46.57
2023-02-13T06:16:37.722Z,43.87
2023-02-13T06:19:06.024Z,42.70
2023-02-13T06:21:37.834Z,45.93
2023-02-13T06:24:06.975Z,50.33
2023-02-13T06:26:36.641Z,48.73
2023-02-13T06:29:06.484Z,41.23
2023-02-13T06:31:35.201Z,40.77
2023-02-13T06:34:03.491Z,42.73
2023-02-13T06:36:31.756Z,43.10
2023-02-13T06:38:59.996Z,34.00
2023-02-13T06:41:28.189Z,46.03
2023-02-13T06:43:57.923Z,37.30
2023-02-13T06:46:26.178Z,45.90
2023-02-13T06:48:55.451Z,34.13
2023-02-13T06:51:23.668Z,37.27
2023-02-13T06:53:51.976Z,32.93
2023-02-13T06:56:20.227Z,30.47
2023-02-13T06:58:51.443Z,31.20
2023-02-13T07:01:21.154Z,32.27
2023-02-13T07:03:49.388Z,30.77
2023-02-13T07:06:20.850Z,34.30
2023-02-13T07:08:51.445Z,34.20
2023-02-13T07:11:20.681Z,34.87
2023-02-13T07:13:48.993Z,30.73
2023-02-13T07:16:17.441Z,34.33
2023-02-13T07:18:47.081Z,32.07
2023-02-13T07:21:15.565Z,34.63
2023-02-13T07:23:43.847Z,28.43
2023-02-13T07:26:12.178Z,32.70
2023-02-13T07:28:40.731Z,27.90
2023-02-13T07:31:09.174Z,29.20
2023-02-13T07:33:37.965Z,27.63
2023-02-13T07:36:08.620Z,26.93
2023-02-13T07:38:36.852Z,28.87
2023-02-13T07:41:05.702Z,24.90
2023-02-13T07:43:34.247Z,25.17
2023-02-13T07:46:03.766Z,23.37
2023-02-13T07:48:35.056Z,23.87
2023-02-13T07:51:04.966Z,24.80
2023-02-13T07:53:34.681Z,23.97
2023-02-13T07:56:06.890Z,24.27
2023-02-13T07:58:35.446Z,23.57
2023-02-13T08:01:08.030Z,22.90
2023-02-13T08:03:36.344Z,22.23
2023-02-13T08:06:05.033Z,22.97
2023-02-13T08:08:35.059Z,24.70
2023-02-13T08:11:26.051Z,21.70
2023-02-13T08:13:54.343Z,25.33
2023-02-13T08:16:22.607Z,23.20
2023-02-13T08:18:50.829Z,22.67
2023-02-13T08:21:19.070Z,24.43
2023-02-13T08:23:48.907Z,25.10
2023-02-13T08:26:17.177Z,23.17
2023-02-13T08:28:45.447Z,23.87
2023-02-13T08:31:14.316Z,24.10
2023-02-13T08:33:42.531Z,24.77
2023-02-13T08:36:11.184Z,23.60
2023-02-13T08:41:10.515Z,23.50
2023-02-13T08:43:39.308Z,24.17
2023-02-13T08:46:07.883Z,24.03
2023-02-13T08:48:36.154Z,24.20
2023-02-13T08:51:07.408Z,24.57
2023-02-13T08:53:36.192Z,24.97
2023-02-13T08:56:05.458Z,24.63
2023-02-13T08:58:35.367Z,22.77
2023-02-13T09:01:06.721Z,24.40
2023-02-13T09:03:35.499Z,23.73
2023-02-13T09:06:04.756Z,21.70
2023-02-13T09:08:33.143Z,23.27
2023-02-13T09:11:03.529Z,24.33
2023-02-13T09:13:33.534Z,22.77
2023-02-13T09:16:06.271Z,21.67
2023-02-13T09:18:35.204Z,23.90
2023-02-13T09:21:06.150Z,23.57
2023-02-13T09:23:36.045Z,22.93
2023-02-13T09:26:05.554Z,23.47
2023-02-13T09:28:35.470Z,23.23
2023-02-13T09:31:09.075Z,23.50
2023-02-13T09:33:38.638Z,22.63
2023-02-13T09:36:07.373Z,22.30
2023-02-13T09:38:35.822Z,21.30
2023-02-13T09:41:06.818Z,23.03
2023-02-13T09:43:39.077Z,21.07
2023-02-13T09:46:13.768Z,19.47
2023-02-13T09:48:45.470Z,20.70
2023-02-13T09:51:18.395Z,19.73
2023-02-13T09:53:53.686Z,19.33
2023-02-13T09:56:28.485Z,19.57
2023-02-13T09:59:02.332Z,19.87
2023-02-13T10:01:35.354Z,19.93
2023-02-13T10:04:26.494Z,18.80
2023-02-13T10:07:02.830Z,16.87
2023-02-13T10:09:37.523Z,17.47
2023-02-13T10:12:23.730Z,16.50
2023-02-13T10:15:04.971Z,15.63
2023-02-13T10:17:39.420Z,16.40
2023-02-13T10:20:18.768Z,16.23
2023-02-13T10:22:52.952Z,15.57
2023-02-13T10:25:25.735Z,14.57
2023-02-13T10:27:58.332Z,14.17
2023-02-13T10:30:31.940Z,14.13
2023-02-13T10:33:22.037Z,13.57
2023-02-13T10:35:55.867Z,14.10
2023-02-13T10:38:25.299Z,14.07
2023-02-13T10:41:33.267Z,12.83
2023-02-13T10:44:22.941Z,13.77
2023-02-13T10:47:02.163Z,12.80
2023-02-13T10:49:44.682Z,12.50
2023-02-13T10:52:22.509Z,12.33
2023-02-13T10:55:03.536Z,12.80
2023-02-13T10:57:44.152Z,12.10
2023-02-13T11:00:17.986Z,12.53
2023-02-13T11:02:46.465Z,12.53
2023-02-13T11:05:19.159Z,11.97
2023-02-13T11:07:48.888Z,11.40
2023-02-13T11:10:19.777Z,12.13
2023-02-13T11:12:48.324Z,11.53
2023-02-13T11:15:26.793Z,11.90
2023-02-13T11:17:57.860Z,12.13
2023-02-13T11:20:48.005Z,13.27
2023-02-13T11:23:34.518Z,12.40
2023-02-13T11:26:05.157Z,12.47
2023-02-13T11:28:38.070Z,13.10
2023-02-13T11:31:23.525Z,13.23
2023-02-13T11:33:52.058Z,13.47
2023-02-13T11:36:27.693Z,14.33
2023-02-13T11:39:01.028Z,12.67
2023-02-13T11:41:31.300Z,14.50
2023-02-13T11:44:02.362Z,13.50
2023-02-13T11:46:32.167Z,12.97
2023-02-13T11:49:03.456Z,13.73
2023-02-13T11:51:44.994Z,13.37
2023-02-13T11:54:26.792Z,13.00
2023-02-13T11:57:05.644Z,13.77
2023-02-13T11:59:41.274Z,14.60
2023-02-13T12:02:19.499Z,12.57
2023-02-13T12:04:49.172Z,12.63
2023-02-13T12:07:24.816Z,13.63
2023-02-13T12:09:58.542Z,13.77
2023-02-13T12:12:33.145Z,12.57
2023-02-13T12:15:07.094Z,12.97
2023-02-13T12:17:38.085Z,13.60
2023-02-13T12:20:13.068Z,12.50
2023-02-13T12:22:54.350Z,11.50
2023-02-13T12:25:41.309Z,12.70
2023-02-13T12:28:14.236Z,13.37
2023-02-13T12:31:10.610Z,13.23
2023-02-13T12:34:28.250Z,13.43
2023-02-13T12:37:11.185Z,13.00
2023-02-13T12:39:48.478Z,12.60
2023-02-13T12:42:30.723Z,13.67
2023-02-13T12:45:17.115Z,13.60
2023-02-13T12:48:01.795Z,12.63
2023-02-13T12:50:40.241Z,13.43
2023-02-13T12:53:29.636Z,13.90
2023-02-13T12:56:23.376Z,13.37
2023-02-13T12:59:02.556Z,13.43
2023-02-13T13:02:00.949Z,13.00
2023-02-13T13:04:44.102Z,12.53
2023-02-13T13:07:28.977Z,12.83
2023-02-13T13:10:28.245Z,12.93
2023-02-13T13:13:08.133Z,13.20
2023-02-13T13:15:41.596Z,13.00
2023-02-13T13:18:21.757Z,12.63
2023-02-13T13:21:04.331Z,13.23
2023-02-13T13:23:35.563Z,14.10
2023-02-13T13:26:14.605Z,13.60
2023-02-13T13:28:47.178Z,13.00
2023-02-13T13:31:16.478Z,13.57
2023-02-13T13:33:47.885Z,13.60
2023-02-13T13:36:25.085Z,13.67
2023-02-13T13:39:01.946Z,12.47
2023-02-13T13:41:40.706Z,13.33
2023-02-13T13:44:26.952Z,13.23
2023-02-13T13:47:02.655Z,13.67
2023-02-13T13:49:43.711Z,13.93
2023-02-13T13:52:21.739Z,14.70
2023-02-13T13:54:51.702Z,16.67
2023-02-13T13:57:20.863Z,14.67
2023-02-13T14:00:19.571Z,13.80
2023-02-13T14:02:50.006Z,13.50
2023-02-13T14:05:25.941Z,13.40
2023-02-13T14:07:56.140Z,12.47
2023-02-13T14:11:09.876Z,14.27
2023-02-13T14:13:40.568Z,12.43
2023-02-13T14:16:15.092Z,13.93
2023-02-13T14:18:47.695Z,13.47
2023-02-13T14:21:24.828Z,13.63
2023-02-13T14:23:54.144Z,12.53
2023-02-13T14:26:39.008Z,14.03
2023-02-13T14:29:34.727Z,12.70
2023-02-13T14:32:23.972Z,12.10
2023-02-13T14:34:59.668Z,12.00
2023-02-13T14:37:37.776Z,12.50
2023-02-13T14:40:41.758Z,12.97
2023-02-13T14:43:24.183Z,11.60
2023-02-13T14:45:56.320Z,11.57
2023-02-13T14:48:37.022Z,10.37
2023-02-13T14:51:07.070Z,12.27
2023-02-13T14:53:51.023Z,11.77
2023-02-13T14:56:22.662Z,12.23
2023-02-13T14:58:54.493Z,11.23
2023-02-13T15:01:31.670Z,11.30
2023-02-13T15:04:07.677Z,11.27
2023-02-13T15:06:39.840Z,11.70
2023-02-13T15:09:22.483Z,16.00
2023-02-13T15:11:51.239Z,11.90
2023-02-13T15:14:22.746Z,10.67
2023-02-13T15:16:55.907Z,10.23
2023-02-13T15:19:26.999Z,9.10
2023-02-13T15:21:59.062Z,10.30
2023-02-13T15:24:30.798Z,10.03
2023-02-13T15:27:02.659Z,9.60
2023-02-13T15:29:47.609Z,9.83
2023-02-13T15:32:21.088Z,10.07
2023-02-13T15:34:51.165Z,9.90
2023-02-13T15:37:24.471Z,9.17
2023-02-13T15:39:52.772Z,9.13
2023-02-13T15:42:21.212Z,9.97
2023-02-13T15:44:51.493Z,10.60
2023-02-13T15:47:27.608Z,9.60
2023-02-13T15:49:57.798Z,9.57
2023-02-13T15:52:32.491Z,9.60
2023-02-13T15:55:01.826Z,9.47
2023-02-13T15:57:30.647Z,9.63
2023-02-13T16:00:01.308Z,9.47
2023-02-13T16:02:45.824Z,9.43
2023-02-13T16:05:26.469Z,9.50
2023-02-13T16:08:02.445Z,9.33
2023-02-13T16:10:32.600Z,9.53
2023-02-13T16:13:04.175Z,9.57
2023-02-13T16:15:35.462Z,9.37
2023-02-13T16:18:06.321Z,9.33
2023-02-13T16:20:38.070Z,8.97
2023-02-13T16:23:14.730Z,10.00
2023-02-13T16:25:43.288Z,10.37
2023-02-13T16:28:19.673Z,10.23
2023-02-13T16:30:53.914Z,9.47
2023-02-13T16:33:29.922Z,9.30
2023-02-13T16:36:01.263Z,10.37
2023-02-13T16:38:33.650Z,10.90
2023-02-13T16:41:03.997Z,9.93
2023-02-13T16:43:40.898Z,10.07
2023-02-13T16:46:33.795Z,9.70
2023-02-13T16:49:06.912Z,10.90
2023-02-13T16:51:40.299Z,9.67
2023-02-13T16:54:20.379Z,9.93
2023-02-13T16:56:50.613Z,10.50
2023-02-13T16:59:31.957Z,10.23
2023-02-13T17:02:21.909Z,10.23
2023-02-13T17:04:53.006Z,10.23
2023-02-13T17:07:25.534Z,11.47
2023-02-13T17:09:55.711Z,12.60
2023-02-13T17:12:24.709Z,13.50
2023-02-13T17:14:53.677Z,13.20
2023-02-13T17:17:23.434Z,12.70
2023-02-13T17:19:52.151Z,12.03
2023-02-13T17:22:40.754Z,13.90
2023-02-13T17:25:16.497Z,12.20
2023-02-13T17:27:44.768Z,12.13
2023-02-13T17:30:16.064Z,13.00
2023-02-13T17:32:47.554Z,13.33
2023-02-13T17:35:16.784Z,15.57
2023-02-13T17:37:46.411Z,13.63
2023-02-13T17:40:19.214Z,13.47
2023-02-13T17:42:51.432Z,12.43
2023-02-13T17:45:23.280Z,16.70
2023-02-13T17:47:51.655Z,13.10
2023-02-13T17:50:20.570Z,15.90
2023-02-13T17:52:50.193Z,15.70
2023-02-13T17:55:21.201Z,13.73
2023-02-13T17:57:49.801Z,14.43
2023-02-13T18:00:20.130Z,14.97
2023-02-13T18:02:49.250Z,14.90
2023-02-13T18:05:24.960Z,15.83
2023-02-13T18:07:54.700Z,14.03
2023-02-13T18:10:25.460Z,15.10
2023-02-13T18:12:55.431Z,16.40
2023-02-13T18:15:24.405Z,16.23
2023-02-13T18:17:52.728Z,15.50
2023-02-13T18:20:21.905Z,16.73
2023-02-13T18:22:51.238Z,16.17
2023-02-13T18:25:21.951Z,16.60
2023-02-13T18:27:50.687Z,16.10
2023-02-13T18:30:21.547Z,15.47
2023-02-13T18:32:53.812Z,18.03
2023-02-13T18:35:22.385Z,16.57
2023-02-13T18:37:50.738Z,15.33
2023-02-13T18:40:20.659Z,16.03
2023-02-13T18:42:51.116Z,17.07
2023-02-13T18:45:19.757Z,16.27
2023-02-13T18:47:48.024Z,15.40
2023-02-13T18:50:16.280Z,16.70
2023-02-13T18:52:44.496Z,15.73
2023-02-13T18:55:12.925Z,18.10
2023-02-13T18:57:45.394Z,16.67
2023-02-13T19:00:14.935Z,16.93
2023-02-13T19:02:43.481Z,17.20
2023-02-13T19:05:11.957Z,17.67
2023-02-13T19:07:40.825Z,20.33
2023-02-13T19:10:09.556Z,21.00
2023-02-13T19:12:38.483Z,20.53
2023-02-13T19:15:09.131Z,21.57
2023-02-13T19:17:38.991Z,20.60
2023-02-13T19:20:08.769Z,18.33
2023-02-13T19:22:37.062Z,19.70
2023-02-13T19:25:05.780Z,18.37
2023-02-13T19:27:36.601Z,18.63
2023-02-13T19:30:09.377Z,18.30
2023-02-13T19:32:39.216Z,18.03
2023-02-13T19:35:08.393Z,18.30
2023-02-13T19:37:43.875Z,19.13
2023-02-13T19:40:13.985Z,17.73
2023-02-13T19:42:42.802Z,18.50
2023-02-13T19:45:11.907Z,17.90
2023-02-13T19:47:42.350Z,16.97
2023-02-13T19:50:11.677Z,17.77
2023-02-13T19:52:40.840Z,17.43
2023-02-13T19:55:09.482Z,17.30
2023-02-13T19:57:38.223Z,16.57
2023-02-13T20:00:09.704Z,17.30
2023-02-13T20:02:43.728Z,18.17
2023-02-13T20:05:12.165Z,17.77
2023-02-13T20:07:40.518Z,17.10
2023-02-13T20:10:10.358Z,17.17
2023-02-13T20:12:39.935Z,16.30
2023-02-13T20:15:08.898Z,15.77
2023-02-13T20:17:38.890Z,16.90
2023-02-13T20:20:09.831Z,16.40
2023-02-13T20:22:39.222Z,16.63
2023-02-13T20:25:07.664Z,17.63
2023-02-13T20:27:37.798Z,16.77
2023-02-13T20:30:08.178Z,17.27
2023-02-13T20:32:38.516Z,17.70
2023-02-13T20:35:09.429Z,16.50
2023-02-13T20:37:38.212Z,17.80
2023-02-13T20:40:07.442Z,18.43
2023-02-13T20:42:36.516Z,17.80
2023-02-13T20:45:05.703Z,17.37
2023-02-13T20:47:34.216Z,18.43
2023-02-13T20:50:02.583Z,17.03
2023-02-13T20:52:32.473Z,17.67
2023-02-13T20:55:01.466Z,18.17
2023-02-13T20:57:30.049Z,17.57
2023-02-13T20:59:58.388Z,19.17
2023-02-13T21:02:26.664Z,20.97
2023-02-13T21:04:55.000Z,18.43
2023-02-13T21:07:23.374Z,19.23
2023-02-13T21:09:53.024Z,20.73
2023-02-13T21:12:21.330Z,19.90
2023-02-13T21:14:49.744Z,19.47
2023-02-13T21:17:18.017Z,20.50
2023-02-13T21:19:46.279Z,21.47
2023-02-13T21:22:14.518Z,19.90
2023-02-13T21:24:44.260Z,19.63
2023-02-13T21:27:13.949Z,21.17
2023-02-13T21:29:42.687Z,19.80
2023-02-13T21:32:11.019Z,21.33
2023-02-13T21:34:40.155Z,21.23
2023-02-13T21:37:08.423Z,22.70
2023-02-13T21:39:37.314Z,21.30
2023-02-13T21:42:05.652Z,20.40
2023-02-13T21:44:35.246Z,21.30
2023-02-13T21:47:05.529Z,22.40
2023-02-13T21:49:35.871Z,22.83
2023-02-13T21:52:04.403Z,21.23
2023-02-13T21:54:32.639Z,24.97
2023-02-13T21:57:00.875Z,21.77
2023-02-13T21:59:29.189Z,21.93
2023-02-13T22:01:59.363Z,22.33
2023-02-13T22:04:27.651Z,22.23
2023-02-13T22:06:55.938Z,22.00
2023-02-13T22:09:26.951Z,22.27
2023-02-13T22:11:55.489Z,21.60
2023-02-13T22:14:23.699Z,22.90
2023-02-13T22:16:52.648Z,22.97
2023-02-13T22:19:22.434Z,21.80
2023-02-13T22:21:50.934Z,23.47
2023-02-13T22:24:19.219Z,24.73
2023-02-13T22:26:47.496Z,23.57
2023-02-13T22:29:18.498Z,23.73
2023-02-13T22:31:47.714Z,24.03
2023-02-13T22:34:16.411Z,25.13
2023-02-13T22:36:46.047Z,25.23
2023-02-13T22:39:14.392Z,25.33
2023-02-13T22:41:45.565Z,24.87
2023-02-13T22:44:14.026Z,24.23
2023-02-13T22:46:42.317Z,23.90
2023-02-13T22:49:10.585Z,23.90
2023-02-13T22:51:39.492Z,22.37
2023-02-13T22:54:09.075Z,24.27
2023-02-13T22:56:37.618Z,23.73
2023-02-13T22:59:05.861Z,23.40
2023-02-13T23:01:34.146Z,22.93
2023-02-13T23:04:02.522Z,22.93
2023-02-13T23:06:30.776Z,22.33
2023-02-13T23:08:59.230Z,21.87
2023-02-13T23:11:46.964Z,23.30
2023-02-13T23:14:16.589Z,21.80
2023-02-13T23:17:02.882Z,21.67
2023-02-13T23:19:31.820Z,22.97
2023-02-13T23:22:00.966Z,22.30
2023-02-13T23:24:29.943Z,23.60
2023-02-13T23:26:59.662Z,22.37
2023-02-13T23:29:28.018Z,22.70
2023-02-13T23:31:56.495Z,22.83
2023-02-13T23:34:24.973Z,23.00
2023-02-13T23:36:53.278Z,22.93
2023-02-13T23:39:21.582Z,21.27
2023-02-13T23:41:49.791Z,22.83
2023-02-13T23:44:19.575Z,21.30
2023-02-13T23:46:47.929Z,22.90
2023-02-13T23:49:16.387Z,21.53
2023-02-13T23:51:44.629Z,21.27
2023-02-13T23:54:18.505Z,21.93
2023-02-13T23:56:46.974Z,22.13
2023-02-13T23:59:17.263Z,21.03
